createdAt,value
2019-04-03T17:56:51.688Z,15.50
2019-04-03T18:00:55.500Z,20.97
2019-04-03T18:04:59.198Z,11.38
2019-04-03T18:09:04.752Z,15.65
2019-04-03T18:13:09.663Z,12.25
2019-04-03T18:17:13.374Z,10.53
2019-04-03T18:21:17.649Z,13.08
2019-04-03T18:25:21.436Z,12.47
2019-04-03T18:29:25.159Z,10.40
2019-04-03T18:33:28.946Z,11.22
2019-04-03T18:37:34.447Z,9.13
2019-04-03T18:41:38.360Z,11.73
2019-04-03T18:45:42.533Z,10.35
2019-04-03T18:49:46.393Z,8.90
2019-04-03T18:53:50.545Z,8.18
2019-04-03T18:57:54.982Z,8.50
2019-04-03T19:01:58.824Z,8.48
2019-04-03T19:06:02.708Z,8.45
2019-04-03T19:10:07.855Z,8.23
2019-04-03T19:14:11.849Z,6.40
2019-04-03T19:18:19.777Z,8.80
2019-04-03T19:22:21.545Z,7.25
2019-04-03T19:26:28.392Z,8.48
2019-04-03T19:30:32.102Z,7.83
2019-04-03T19:34:35.785Z,9.33
2019-04-03T19:38:39.482Z,7.67
2019-04-03T19:42:43.899Z,6.47
2019-04-03T19:46:48.185Z,7.62
2019-04-03T19:50:53.245Z,7.75
2019-04-03T19:54:56.929Z,6.78
2019-04-03T19:59:00.681Z,6.17
2019-04-03T20:03:04.363Z,6.00
2019-04-03T20:07:08.091Z,5.72
2019-04-03T20:11:11.878Z,7.67
2019-04-03T20:15:15.569Z,4.87
2019-04-03T20:19:19.544Z,5.53
2019-04-03T20:23:23.182Z,7.47
2019-04-03T20:27:27.642Z,5.17
2019-04-03T20:31:31.405Z,5.20
2019-04-03T20:35:35.096Z,5.37
2019-04-03T20:39:38.782Z,6.03
2019-04-03T20:43:43.323Z,5.47
2019-04-03T20:47:48.022Z,5.85
2019-04-03T20:51:51.687Z,5.72
2019-04-03T20:55:57.711Z,5.90
2019-04-03T21:00:03.164Z,5.25
2019-04-03T21:04:08.634Z,5.12
2019-04-03T21:08:12.358Z,4.65
2019-04-03T21:12:16.116Z,5.45
2019-04-03T21:16:19.809Z,4.70
2019-04-03T21:20:23.797Z,5.30
2019-04-03T21:24:28.941Z,5.58
2019-04-03T21:28:32.596Z,4.80
2019-04-03T21:32:36.238Z,7.60
2019-04-03T21:36:39.916Z,5.40
2019-04-03T21:40:45.019Z,6.22
2019-04-03T21:44:49.183Z,4.83
2019-04-03T21:48:53.841Z,5.17
2019-04-03T21:52:57.498Z,5.15
2019-04-03T21:57:01.162Z,4.80
2019-04-03T22:01:23.983Z,4.67
2019-04-03T22:05:27.657Z,5.28
2019-04-03T22:09:31.474Z,4.28
2019-04-03T22:13:38.182Z,4.40
2019-04-03T22:17:43.588Z,5.00
2019-04-03T22:21:46.963Z,4.55
2019-04-03T22:25:50.600Z,4.35
2019-04-03T22:29:54.249Z,3.92
2019-04-03T22:33:58.892Z,5.25
2019-04-03T22:38:05.301Z,4.95
2019-04-03T22:42:08.705Z,3.87
2019-04-03T22:46:12.369Z,5.00
2019-04-03T22:50:16.170Z,4.65
2019-04-03T22:54:19.800Z,4.90
2019-04-03T22:58:23.569Z,4.72
2019-04-03T23:02:27.331Z,4.55
2019-04-03T23:06:30.999Z,4.15
2019-04-03T23:10:35.160Z,4.22
2019-04-03T23:14:39.265Z,4.42
2019-04-03T23:18:42.914Z,4.47
2019-04-03T23:22:46.923Z,3.98
2019-04-03T23:26:50.571Z,4.40
2019-04-03T23:30:54.226Z,4.25
2019-04-03T23:34:57.879Z,4.17
2019-04-03T23:39:03.599Z,4.97
2019-04-03T23:43:09.466Z,4.80
2019-04-03T23:47:15.082Z,3.75
2019-04-03T23:51:23.375Z,3.98
2019-04-03T23:55:25.092Z,4.25
2019-04-03T23:59:28.799Z,4.08
